createdAt,value
2022-11-16T00:00:17.567Z,527.00
2022-11-16T00:00:47.595Z,526.00
2022-11-16T00:01:17.630Z,527.00
2022-11-16T00:01:47.721Z,528.00
2022-11-16T00:02:17.825Z,529.00
2022-11-16T00:02:47.846Z,529.00
2022-11-16T00:03:17.868Z,529.00
2022-11-16T00:03:47.898Z,529.00
2022-11-16T00:04:17.941Z,531.00
2022-11-16T00:04:47.969Z,531.00
2022-11-16T00:05:17.998Z,532.00
2022-11-16T00:05:48.025Z,535.00
2022-11-16T00:06:18.058Z,536.00
2022-11-16T00:06:48.126Z,537.00
2022-11-16T00:07:18.234Z,537.00
2022-11-16T00:07:48.260Z,535.00
2022-11-16T00:08:18.284Z,534.00
2022-11-16T00:08:48.307Z,533.00
2022-11-16T00:09:18.329Z,532.00
2022-11-16T00:09:48.347Z,532.00
2022-11-16T00:10:18.378Z,534.00
2022-11-16T00:10:48.402Z,534.00
2022-11-16T00:11:18.436Z,533.00
2022-11-16T00:11:48.469Z,531.00
2022-11-16T00:12:18.492Z,531.00
2022-11-16T00:12:48.519Z,532.00
2022-11-16T00:13:18.541Z,532.00
2022-11-16T00:13:48.574Z,531.00
2022-11-16T00:14:18.607Z,532.00
2022-11-16T00:14:48.620Z,530.00
2022-11-16T00:15:18.666Z,532.00
2022-11-16T00:15:48.690Z,531.00
2022-11-16T00:16:18.719Z,532.00
2022-11-16T00:16:48.753Z,532.00
2022-11-16T00:17:18.769Z,533.00
2022-11-16T00:17:48.798Z,531.00
2022-11-16T00:18:18.820Z,533.00
2022-11-16T00:18:48.848Z,533.00
2022-11-16T00:19:18.872Z,533.00
2022-11-16T00:19:48.895Z,533.00
2022-11-16T00:20:18.920Z,532.00
2022-11-16T00:20:48.947Z,532.00
2022-11-16T00:21:18.990Z,532.00
2022-11-16T00:21:49.020Z,533.00
2022-11-16T00:22:19.044Z,532.00
2022-11-16T00:22:49.069Z,534.00
2022-11-16T00:23:19.120Z,533.00
2022-11-16T00:23:49.126Z,532.00
2022-11-16T00:24:19.153Z,529.00
2022-11-16T00:24:49.179Z,529.00
2022-11-16T00:25:19.205Z,528.00
2022-11-16T00:25:49.231Z,528.00
2022-11-16T00:26:19.258Z,528.00
2022-11-16T00:26:49.284Z,526.00
2022-11-16T00:27:19.304Z,526.00
2022-11-16T00:27:49.314Z,525.00
2022-11-16T00:28:19.426Z,526.00
2022-11-16T00:28:49.537Z,527.00
2022-11-16T00:29:19.655Z,528.00
2022-11-16T00:29:49.773Z,530.00
2022-11-16T00:30:19.877Z,530.00
2022-11-16T00:30:49.996Z,529.00
2022-11-16T00:31:20.107Z,529.00
2022-11-16T00:31:50.230Z,529.00
2022-11-16T00:32:20.332Z,530.00
2022-11-16T00:32:50.448Z,529.00
2022-11-16T00:33:20.560Z,528.00
2022-11-16T00:33:50.682Z,525.00
2022-11-16T00:34:20.810Z,526.00
2022-11-16T00:34:50.785Z,524.00
2022-11-16T00:35:20.799Z,524.00
2022-11-16T00:35:50.931Z,523.00
2022-11-16T00:36:20.910Z,522.00
2022-11-16T00:36:51.032Z,522.00
2022-11-16T00:37:21.137Z,523.00
2022-11-16T00:37:51.143Z,523.00
2022-11-16T00:38:21.254Z,525.00
2022-11-16T00:38:51.258Z,527.00
2022-11-16T00:39:21.286Z,526.00
2022-11-16T00:39:51.313Z,527.00
2022-11-16T00:40:21.332Z,528.00
2022-11-16T00:40:51.373Z,528.00
2022-11-16T00:41:21.451Z,529.00
2022-11-16T00:41:51.466Z,530.00
2022-11-16T00:42:21.490Z,529.00
2022-11-16T00:42:51.511Z,528.00
2022-11-16T00:43:21.535Z,527.00
2022-11-16T00:43:51.567Z,526.00
2022-11-16T00:44:21.594Z,529.00
2022-11-16T00:44:51.618Z,531.00
2022-11-16T00:45:21.642Z,531.00
2022-11-16T00:45:51.675Z,533.00
2022-11-16T00:46:21.696Z,530.00
2022-11-16T00:46:51.737Z,529.00
2022-11-16T00:47:21.749Z,531.00
2022-11-16T00:47:55.228Z,531.00
2022-11-16T00:48:21.824Z,528.00
2022-11-16T00:48:51.845Z,527.00
2022-11-16T00:49:21.869Z,525.00
2022-11-16T00:49:51.901Z,523.00
2022-11-16T00:50:21.921Z,521.00
2022-11-16T00:50:51.950Z,523.00
2022-11-16T00:51:21.971Z,521.00
2022-11-16T00:51:52.028Z,519.00
2022-11-16T00:52:22.054Z,518.00
2022-11-16T00:52:52.080Z,519.00
2022-11-16T00:53:22.109Z,521.00
2022-11-16T00:53:52.154Z,520.00
2022-11-16T00:54:22.161Z,520.00
2022-11-16T00:54:52.187Z,519.00
2022-11-16T00:55:22.210Z,518.00
2022-11-16T00:55:52.243Z,516.00
2022-11-16T00:56:22.266Z,516.00
2022-11-16T00:56:52.315Z,516.00
2022-11-16T00:57:22.342Z,517.00
2022-11-16T00:57:52.369Z,516.00
2022-11-16T00:58:22.394Z,517.00
2022-11-16T00:58:52.423Z,517.00
2022-11-16T00:59:22.447Z,517.00
2022-11-16T00:59:52.469Z,516.00
2022-11-16T01:00:22.494Z,514.00
2022-11-16T01:00:52.610Z,514.00
2022-11-16T01:01:22.587Z,514.00
2022-11-16T01:01:52.691Z,513.00
2022-11-16T01:02:22.704Z,513.00
2022-11-16T01:02:52.729Z,513.00
2022-11-16T01:03:22.751Z,512.00
2022-11-16T01:03:52.781Z,512.00
2022-11-16T01:04:22.808Z,511.00
2022-11-16T01:04:52.835Z,513.00
2022-11-16T01:05:22.866Z,513.00
2022-11-16T01:05:52.880Z,514.00
2022-11-16T01:06:22.906Z,514.00
2022-11-16T01:06:53.005Z,515.00
2022-11-16T01:07:23.124Z,515.00
2022-11-16T01:07:53.035Z,518.00
2022-11-16T01:08:23.057Z,518.00
2022-11-16T01:08:53.088Z,515.00
2022-11-16T01:09:23.141Z,516.00
2022-11-16T01:09:53.147Z,519.00
2022-11-16T01:10:23.168Z,521.00
2022-11-16T01:10:53.198Z,524.00
2022-11-16T01:11:23.313Z,526.00
2022-11-16T01:11:53.359Z,528.00
2022-11-16T01:12:23.383Z,529.00
2022-11-16T01:12:53.409Z,529.00
2022-11-16T01:13:23.440Z,527.00
2022-11-16T01:13:53.468Z,525.00
2022-11-16T01:14:23.486Z,524.00
2022-11-16T01:14:53.514Z,523.00
2022-11-16T01:15:23.543Z,523.00
2022-11-16T01:15:53.561Z,523.00
2022-11-16T01:16:23.588Z,525.00
2022-11-16T01:16:53.623Z,524.00
2022-11-16T01:17:23.651Z,524.00
2022-11-16T01:17:53.672Z,524.00
2022-11-16T01:18:23.700Z,522.00
2022-11-16T01:18:53.724Z,522.00
2022-11-16T01:19:23.747Z,524.00
2022-11-16T01:19:53.772Z,523.00
2022-11-16T01:20:23.797Z,524.00
2022-11-16T01:20:53.833Z,525.00
2022-11-16T01:21:23.863Z,524.00
2022-11-16T01:21:53.876Z,523.00
2022-11-16T01:22:23.911Z,525.00
2022-11-16T01:22:53.931Z,525.00
2022-11-16T01:23:23.958Z,526.00
2022-11-16T01:23:53.979Z,526.00
2022-11-16T01:24:24.007Z,527.00
2022-11-16T01:24:54.053Z,527.00
2022-11-16T01:25:24.060Z,527.00
2022-11-16T01:25:54.097Z,528.00
2022-11-16T01:26:24.116Z,525.00
2022-11-16T01:26:54.145Z,523.00
2022-11-16T01:27:24.172Z,522.00
2022-11-16T01:27:54.169Z,523.00
2022-11-16T01:28:24.293Z,524.00
2022-11-16T01:28:54.399Z,525.00
2022-11-16T01:29:24.509Z,524.00
2022-11-16T01:29:54.618Z,526.00
2022-11-16T01:30:24.733Z,525.00
2022-11-16T01:30:54.850Z,524.00
2022-11-16T01:31:24.960Z,524.00
2022-11-16T01:31:55.073Z,524.00
2022-11-16T01:32:25.193Z,524.00
2022-11-16T01:32:55.302Z,525.00
2022-11-16T01:33:25.421Z,523.00
2022-11-16T01:33:55.535Z,523.00
2022-11-16T01:34:25.644Z,523.00
2022-11-16T01:34:55.758Z,521.00
2022-11-16T01:35:25.879Z,520.00
2022-11-16T01:35:55.984Z,521.00
2022-11-16T01:36:26.101Z,522.00
2022-11-16T01:36:56.221Z,522.00
2022-11-16T01:37:26.208Z,522.00
2022-11-16T01:37:56.220Z,522.00
2022-11-16T01:38:29.769Z,524.00
2022-11-16T01:38:56.262Z,523.00
2022-11-16T01:39:26.292Z,523.00
2022-11-16T01:39:56.338Z,524.00
2022-11-16T01:40:26.334Z,522.00
2022-11-16T01:40:56.361Z,521.00
2022-11-16T01:41:26.382Z,521.00
2022-11-16T01:41:56.409Z,519.00
2022-11-16T01:42:26.453Z,519.00
2022-11-16T01:42:56.475Z,518.00
2022-11-16T01:43:26.506Z,516.00
2022-11-16T01:43:56.533Z,517.00
2022-11-16T01:44:26.558Z,518.00
2022-11-16T01:44:56.580Z,519.00
2022-11-16T01:45:26.605Z,519.00
2022-11-16T01:45:56.633Z,519.00
2022-11-16T01:46:26.658Z,520.00
2022-11-16T01:46:56.681Z,519.00
2022-11-16T01:47:26.723Z,521.00
2022-11-16T01:47:56.823Z,519.00
2022-11-16T01:48:26.897Z,520.00
2022-11-16T01:48:56.905Z,520.00
2022-11-16T01:49:26.935Z,521.00
2022-11-16T01:49:56.960Z,522.00
2022-11-16T01:50:26.993Z,522.00
2022-11-16T01:50:57.017Z,521.00
2022-11-16T01:51:27.043Z,521.00
2022-11-16T01:51:57.076Z,521.00
2022-11-16T01:52:27.116Z,522.00
2022-11-16T01:52:57.140Z,522.00
2022-11-16T01:53:27.164Z,521.00
2022-11-16T01:53:57.185Z,520.00
2022-11-16T01:54:27.210Z,520.00
2022-11-16T01:54:57.228Z,520.00
2022-11-16T01:55:27.275Z,519.00
2022-11-16T01:55:57.272Z,516.00
2022-11-16T01:56:27.299Z,515.00
2022-11-16T01:56:57.329Z,512.00
2022-11-16T01:57:27.405Z,513.00
2022-11-16T01:57:57.426Z,510.00
2022-11-16T01:58:27.451Z,512.00
2022-11-16T01:58:57.478Z,510.00
2022-11-16T01:59:27.509Z,510.00
2022-11-16T01:59:57.532Z,510.00
2022-11-16T02:00:27.560Z,509.00
2022-11-16T02:00:57.641Z,510.00
2022-11-16T02:01:27.777Z,512.00
2022-11-16T02:01:57.734Z,512.00
2022-11-16T02:02:27.780Z,512.00
2022-11-16T02:02:57.803Z,511.00
2022-11-16T02:03:27.826Z,512.00
2022-11-16T02:03:57.856Z,511.00
2022-11-16T02:04:27.877Z,511.00
2022-11-16T02:04:57.902Z,510.00
2022-11-16T02:05:27.939Z,510.00
2022-11-16T02:05:57.958Z,512.00
2022-11-16T02:06:27.987Z,511.00
2022-11-16T02:06:58.070Z,512.00
2022-11-16T02:07:28.118Z,512.00
2022-11-16T02:07:58.132Z,509.00
2022-11-16T02:08:28.151Z,510.00
2022-11-16T02:08:58.175Z,507.00
2022-11-16T02:09:28.203Z,508.00
2022-11-16T02:09:58.244Z,509.00
2022-11-16T02:10:28.260Z,509.00
2022-11-16T02:10:58.301Z,511.00
2022-11-16T02:11:28.315Z,514.00
2022-11-16T02:11:58.333Z,516.00
2022-11-16T02:12:28.385Z,516.00
2022-11-16T02:12:58.405Z,517.00
2022-11-16T02:13:28.476Z,517.00
2022-11-16T02:13:58.500Z,517.00
2022-11-16T02:14:28.521Z,519.00
2022-11-16T02:14:58.555Z,517.00
2022-11-16T02:15:28.575Z,516.00
2022-11-16T02:15:58.604Z,515.00
2022-11-16T02:16:28.625Z,513.00
2022-11-16T02:16:58.648Z,512.00
2022-11-16T02:17:28.684Z,511.00
2022-11-16T02:17:58.703Z,510.00
2022-11-16T02:18:28.747Z,512.00
2022-11-16T02:18:58.770Z,513.00
2022-11-16T02:19:28.794Z,513.00
2022-11-16T02:19:58.822Z,512.00
2022-11-16T02:20:28.855Z,513.00
2022-11-16T02:20:58.880Z,514.00
2022-11-16T02:21:28.902Z,514.00
2022-11-16T02:21:58.924Z,515.00
2022-11-16T02:22:28.958Z,517.00
2022-11-16T02:22:58.980Z,518.00
2022-11-16T02:23:29.009Z,520.00
2022-11-16T02:23:59.029Z,520.00
2022-11-16T02:24:29.062Z,520.00
2022-11-16T02:24:59.083Z,520.00
2022-11-16T02:25:29.109Z,520.00
2022-11-16T02:25:59.131Z,517.00
2022-11-16T02:26:29.181Z,516.00
2022-11-16T02:26:59.208Z,515.00
2022-11-16T02:27:29.236Z,516.00
2022-11-16T02:27:59.268Z,515.00
2022-11-16T02:28:29.252Z,515.00
2022-11-16T02:28:59.362Z,517.00
2022-11-16T02:29:29.475Z,517.00
2022-11-16T02:29:59.585Z,517.00
2022-11-16T02:30:29.701Z,514.00
2022-11-16T02:30:59.815Z,516.00
2022-11-16T02:31:29.926Z,515.00
2022-11-16T02:32:00.037Z,514.00
2022-11-16T02:32:30.158Z,511.00
2022-11-16T02:33:00.266Z,509.00
2022-11-16T02:33:30.399Z,511.00
2022-11-16T02:34:00.386Z,508.00
2022-11-16T02:34:30.501Z,507.00
2022-11-16T02:35:00.613Z,508.00
2022-11-16T02:35:30.730Z,507.00
2022-11-16T02:36:00.839Z,506.00
2022-11-16T02:36:30.954Z,506.00
2022-11-16T02:37:01.064Z,507.00
2022-11-16T02:37:31.179Z,507.00
2022-11-16T02:38:01.198Z,507.00
2022-11-16T02:38:31.493Z,507.00
2022-11-16T02:39:01.304Z,505.00
2022-11-16T02:39:31.331Z,507.00
2022-11-16T02:40:01.354Z,509.00
2022-11-16T02:40:31.382Z,508.00
2022-11-16T02:41:01.404Z,507.00
2022-11-16T02:41:31.461Z,509.00
2022-11-16T02:42:01.467Z,509.00
2022-11-16T02:42:31.519Z,509.00
2022-11-16T02:43:01.546Z,511.00
2022-11-16T02:43:31.570Z,511.00
2022-11-16T02:44:01.591Z,511.00
2022-11-16T02:44:31.622Z,511.00
2022-11-16T02:45:01.643Z,512.00
2022-11-16T02:45:31.676Z,511.00
2022-11-16T02:46:01.698Z,513.00
2022-11-16T02:46:31.728Z,514.00
2022-11-16T02:47:01.749Z,515.00
2022-11-16T02:47:31.807Z,515.00
2022-11-16T02:48:01.847Z,513.00
2022-11-16T02:48:32.258Z,513.00
2022-11-16T02:49:01.978Z,512.00
2022-11-16T02:49:31.983Z,514.00
2022-11-16T02:50:02.002Z,514.00
2022-11-16T02:50:32.030Z,514.00
2022-11-16T02:51:02.052Z,513.00
2022-11-16T02:51:32.077Z,514.00
2022-11-16T02:52:02.102Z,515.00
2022-11-16T02:52:32.141Z,517.00
2022-11-16T02:53:02.170Z,519.00
2022-11-16T02:53:32.197Z,517.00
2022-11-16T02:54:02.226Z,519.00
2022-11-16T02:54:32.254Z,519.00
2022-11-16T02:55:02.279Z,517.00
2022-11-16T02:55:32.306Z,519.00
2022-11-16T02:56:02.326Z,519.00
2022-11-16T02:56:32.356Z,517.00
2022-11-16T02:57:02.395Z,517.00
2022-11-16T02:57:32.416Z,516.00
2022-11-16T02:58:02.448Z,516.00
2022-11-16T02:58:32.926Z,516.00
2022-11-16T02:59:02.487Z,514.00
2022-11-16T02:59:32.509Z,515.00
2022-11-16T03:00:02.532Z,515.00
2022-11-16T03:00:32.560Z,515.00
2022-11-16T03:01:02.665Z,516.00
2022-11-16T03:01:32.716Z,514.00
2022-11-16T03:02:02.756Z,517.00
2022-11-16T03:02:32.795Z,515.00
2022-11-16T03:03:02.815Z,515.00
2022-11-16T03:03:32.862Z,516.00
2022-11-16T03:04:02.897Z,516.00
2022-11-16T03:04:32.914Z,515.00
2022-11-16T03:05:02.938Z,514.00
2022-11-16T03:05:32.959Z,516.00
2022-11-16T03:06:02.985Z,518.00
2022-11-16T03:06:33.020Z,518.00
2022-11-16T03:07:03.129Z,518.00
2022-11-16T03:07:33.180Z,518.00
2022-11-16T03:08:03.271Z,518.00
2022-11-16T03:08:33.579Z,518.00
2022-11-16T03:09:03.427Z,518.00
2022-11-16T03:09:33.414Z,517.00
2022-11-16T03:10:03.444Z,516.00
2022-11-16T03:10:33.464Z,516.00
2022-11-16T03:11:03.493Z,515.00
2022-11-16T03:11:33.519Z,514.00
2022-11-16T03:12:03.544Z,513.00
2022-11-16T03:12:33.603Z,514.00
2022-11-16T03:13:03.713Z,514.00
2022-11-16T03:13:33.722Z,515.00
2022-11-16T03:14:03.708Z,513.00
2022-11-16T03:14:33.739Z,515.00
2022-11-16T03:15:03.774Z,514.00
2022-11-16T03:15:33.818Z,514.00
2022-11-16T03:16:03.840Z,513.00
2022-11-16T03:16:33.861Z,512.00
2022-11-16T03:17:03.890Z,513.00
2022-11-16T03:17:33.909Z,514.00
2022-11-16T03:18:03.936Z,514.00
2022-11-16T03:18:34.466Z,514.00
2022-11-16T03:19:04.069Z,514.00
2022-11-16T03:19:34.104Z,514.00
2022-11-16T03:20:04.126Z,514.00
2022-11-16T03:20:34.169Z,514.00
2022-11-16T03:21:04.198Z,512.00
2022-11-16T03:21:34.232Z,510.00
2022-11-16T03:22:04.263Z,508.00
2022-11-16T03:22:34.321Z,511.00
2022-11-16T03:23:04.341Z,510.00
2022-11-16T03:23:34.379Z,511.00
2022-11-16T03:24:04.394Z,510.00
2022-11-16T03:24:34.421Z,510.00
2022-11-16T03:25:04.447Z,511.00
2022-11-16T03:25:34.471Z,511.00
2022-11-16T03:26:04.505Z,512.00
2022-11-16T03:26:34.530Z,511.00
2022-11-16T03:27:04.556Z,512.00
2022-11-16T03:27:34.617Z,511.00
2022-11-16T03:28:04.623Z,513.00
2022-11-16T03:28:35.054Z,512.00
2022-11-16T03:29:04.793Z,513.00
2022-11-16T03:29:34.903Z,514.00
2022-11-16T03:30:05.019Z,514.00
2022-11-16T03:30:35.130Z,512.00
2022-11-16T03:31:05.246Z,512.00
2022-11-16T03:31:35.362Z,513.00
2022-11-16T03:32:05.471Z,513.00
2022-11-16T03:32:35.599Z,512.00
2022-11-16T03:33:05.585Z,513.00
2022-11-16T03:33:35.695Z,513.00
2022-11-16T03:34:05.814Z,512.00
2022-11-16T03:34:35.927Z,511.00
2022-11-16T03:35:06.044Z,511.00
2022-11-16T03:35:36.037Z,511.00
2022-11-16T03:36:06.149Z,511.00
2022-11-16T03:36:36.265Z,511.00
2022-11-16T03:37:06.381Z,512.00
2022-11-16T03:37:36.398Z,513.00
2022-11-16T03:38:06.431Z,514.00
2022-11-16T03:38:36.864Z,516.00
2022-11-16T03:39:06.468Z,516.00
2022-11-16T03:39:36.490Z,515.00
2022-11-16T03:40:06.518Z,513.00
2022-11-16T03:40:36.548Z,512.00
2022-11-16T03:41:06.572Z,514.00
2022-11-16T03:41:36.595Z,513.00
2022-11-16T03:42:06.618Z,515.00
2022-11-16T03:42:36.663Z,514.00
2022-11-16T03:43:06.717Z,512.00
2022-11-16T03:43:36.733Z,511.00
2022-11-16T03:44:06.752Z,509.00
2022-11-16T03:44:36.778Z,509.00
2022-11-16T03:45:06.812Z,508.00
2022-11-16T03:45:36.834Z,505.00
2022-11-16T03:46:06.865Z,504.00
2022-11-16T03:46:36.896Z,505.00
2022-11-16T03:47:06.921Z,505.00
2022-11-16T03:47:36.942Z,504.00
2022-11-16T03:48:06.964Z,504.00
2022-11-16T03:48:37.146Z,503.00
2022-11-16T03:49:07.020Z,502.00
2022-11-16T03:49:37.046Z,501.00
2022-11-16T03:50:07.073Z,503.00
2022-11-16T03:50:37.092Z,506.00
2022-11-16T03:51:07.134Z,506.00
2022-11-16T03:51:37.152Z,506.00
2022-11-16T03:52:07.185Z,505.00
2022-11-16T03:52:37.208Z,504.00
2022-11-16T03:53:07.246Z,503.00
2022-11-16T03:53:37.292Z,504.00
2022-11-16T03:54:07.309Z,505.00
2022-11-16T03:54:37.338Z,505.00
2022-11-16T03:55:07.369Z,508.00
2022-11-16T03:55:37.391Z,507.00
2022-11-16T03:56:07.411Z,506.00
2022-11-16T03:56:37.438Z,508.00
2022-11-16T03:57:07.468Z,507.00
2022-11-16T03:57:37.486Z,506.00
2022-11-16T03:58:07.517Z,505.00
2022-11-16T03:58:37.598Z,503.00
2022-11-16T03:59:07.604Z,503.00
2022-11-16T03:59:37.630Z,504.00
2022-11-16T04:00:07.661Z,505.00
2022-11-16T04:00:37.787Z,506.00
2022-11-16T04:01:07.812Z,505.00
2022-11-16T04:01:41.853Z,504.00
2022-11-16T04:02:07.762Z,505.00
2022-11-16T04:02:37.799Z,505.00
2022-11-16T04:03:07.826Z,506.00
2022-11-16T04:03:38.033Z,504.00
2022-11-16T04:04:07.904Z,504.00
2022-11-16T04:04:37.896Z,506.00
2022-11-16T04:05:07.922Z,506.00
2022-11-16T04:05:37.945Z,508.00
2022-11-16T04:06:07.974Z,507.00
2022-11-16T04:06:38.005Z,508.00
2022-11-16T04:07:08.059Z,510.00
2022-11-16T04:07:38.051Z,511.00
2022-11-16T04:08:08.070Z,511.00
2022-11-16T04:08:38.130Z,510.00
2022-11-16T04:09:08.157Z,511.00
2022-11-16T04:09:38.180Z,511.00
2022-11-16T04:10:08.207Z,511.00
2022-11-16T04:10:38.231Z,512.00
2022-11-16T04:11:08.256Z,510.00
2022-11-16T04:11:38.277Z,509.00
2022-11-16T04:12:08.302Z,507.00
2022-11-16T04:12:38.324Z,507.00
2022-11-16T04:13:08.369Z,508.00
2022-11-16T04:13:38.395Z,507.00
2022-11-16T04:14:09.356Z,508.00
2022-11-16T04:14:38.461Z,508.00
2022-11-16T04:15:08.482Z,509.00
2022-11-16T04:15:38.504Z,509.00
2022-11-16T04:16:08.531Z,509.00
2022-11-16T04:16:38.553Z,508.00
2022-11-16T04:17:08.583Z,510.00
2022-11-16T04:17:38.600Z,511.00
2022-11-16T04:18:08.665Z,511.00
2022-11-16T04:18:38.689Z,508.00
2022-11-16T04:19:08.715Z,508.00
2022-11-16T04:19:38.744Z,507.00
2022-11-16T04:20:08.764Z,508.00
2022-11-16T04:20:38.792Z,506.00
2022-11-16T04:21:08.826Z,506.00
2022-11-16T04:21:38.852Z,505.00
2022-11-16T04:22:08.876Z,504.00
2022-11-16T04:22:38.897Z,506.00
2022-11-16T04:23:08.926Z,506.00
2022-11-16T04:23:38.948Z,505.00
2022-11-16T04:24:08.977Z,507.00
2022-11-16T04:24:39.006Z,508.00
2022-11-16T04:25:09.029Z,509.00
2022-11-16T04:25:39.056Z,509.00
2022-11-16T04:26:09.084Z,508.00
2022-11-16T04:26:39.112Z,507.00
2022-11-16T04:27:09.134Z,505.00
2022-11-16T04:27:39.155Z,503.00
2022-11-16T04:28:09.277Z,504.00
2022-11-16T04:29:18.401Z,527.00
2022-11-16T04:29:48.449Z,518.00
2022-11-16T04:30:18.523Z,512.00
2022-11-16T04:30:48.611Z,510.00
2022-11-16T04:31:18.667Z,512.00
2022-11-16T04:31:48.747Z,512.00
2022-11-16T04:32:18.814Z,511.00
2022-11-16T04:32:48.889Z,510.00
2022-11-16T04:33:18.963Z,510.00
2022-11-16T04:33:49.031Z,509.00
2022-11-16T04:34:19.108Z,508.00
2022-11-16T04:34:49.182Z,510.00
2022-11-16T04:35:19.252Z,511.00
2022-11-16T04:35:49.327Z,509.00
2022-11-16T04:36:20.755Z,506.00
2022-11-16T04:36:49.444Z,505.00
2022-11-16T04:37:19.522Z,504.00
2022-11-16T04:37:49.598Z,506.00
2022-11-16T04:38:19.673Z,505.00
2022-11-16T04:38:49.753Z,505.00
2022-11-16T04:39:19.867Z,505.00
2022-11-16T04:39:49.965Z,504.00
2022-11-16T04:40:20.078Z,504.00
2022-11-16T04:40:50.194Z,505.00
2022-11-16T04:41:20.310Z,506.00
2022-11-16T04:41:50.419Z,503.00
2022-11-16T04:42:20.534Z,503.00
2022-11-16T04:42:50.649Z,502.00
2022-11-16T04:43:20.761Z,503.00
2022-11-16T04:43:50.878Z,505.00
2022-11-16T04:44:24.710Z,506.00
2022-11-16T04:44:50.997Z,504.00
2022-11-16T04:45:21.110Z,504.00
2022-11-16T04:45:51.229Z,505.00
2022-11-16T04:46:21.334Z,509.00
2022-11-16T04:46:51.451Z,509.00
2022-11-16T04:47:21.561Z,507.00
2022-11-16T04:47:51.674Z,506.00
2022-11-16T04:48:21.783Z,507.00
2022-11-16T04:48:51.900Z,506.00
2022-11-16T04:49:22.010Z,505.00
2022-11-16T04:49:52.121Z,505.00
2022-11-16T04:50:22.236Z,505.00
2022-11-16T04:50:52.346Z,503.00
2022-11-16T04:51:22.452Z,509.00
2022-11-16T04:51:52.566Z,506.00
2022-11-16T04:52:22.678Z,504.00
2022-11-16T04:52:52.793Z,503.00
2022-11-16T04:53:22.910Z,503.00
2022-11-16T04:53:53.025Z,504.00
2022-11-16T04:54:23.143Z,502.00
2022-11-16T04:54:53.256Z,504.00
2022-11-16T04:55:23.369Z,506.00
2022-11-16T04:55:56.698Z,507.00
2022-11-16T04:56:23.495Z,509.00
2022-11-16T04:56:53.599Z,507.00
2022-11-16T04:57:23.717Z,506.00
2022-11-16T04:57:53.823Z,506.00
2022-11-16T04:58:23.943Z,507.00
2022-11-16T04:58:54.063Z,509.00
2022-11-16T04:59:24.068Z,510.00
2022-11-16T04:59:54.162Z,508.00
2022-11-16T05:00:24.268Z,509.00
2022-11-16T05:00:54.421Z,508.00
2022-11-16T05:01:24.467Z,511.00
2022-11-16T05:01:54.502Z,509.00
2022-11-16T05:02:24.620Z,508.00
2022-11-16T05:03:00.765Z,507.00
2022-11-16T05:03:24.746Z,509.00
2022-11-16T05:03:54.742Z,512.00
2022-11-16T05:04:24.855Z,512.00
2022-11-16T05:04:54.966Z,513.00
2022-11-16T05:05:25.076Z,514.00
2022-11-16T05:05:55.187Z,515.00
2022-11-16T05:06:25.303Z,513.00
2022-11-16T05:06:55.462Z,514.00
2022-11-16T05:07:25.544Z,512.00
2022-11-16T05:07:55.511Z,514.00
2022-11-16T05:08:25.515Z,513.00
2022-11-16T05:08:55.608Z,513.00
2022-11-16T05:09:25.715Z,512.00
2022-11-16T05:09:55.827Z,514.00
2022-11-16T05:10:25.945Z,514.00
2022-11-16T05:10:56.058Z,514.00
2022-11-16T05:11:26.174Z,514.00
2022-11-16T05:11:56.285Z,515.00
2022-11-16T05:12:26.400Z,514.00
2022-11-16T05:12:56.519Z,515.00
2022-11-16T05:13:26.625Z,515.00
2022-11-16T05:13:56.753Z,516.00
2022-11-16T05:14:26.856Z,515.00
2022-11-16T05:14:56.991Z,516.00
2022-11-16T05:15:27.082Z,516.00
2022-11-16T05:15:57.196Z,518.00
2022-11-16T05:16:27.307Z,518.00
2022-11-16T05:16:57.424Z,519.00
2022-11-16T05:17:27.532Z,518.00
2022-11-16T05:17:57.650Z,518.00
2022-11-16T05:18:27.763Z,518.00
2022-11-16T05:18:57.879Z,516.00
2022-11-16T05:19:27.872Z,518.00
2022-11-16T05:19:57.976Z,519.00
2022-11-16T05:20:28.088Z,517.00
2022-11-16T05:20:58.204Z,516.00
2022-11-16T05:21:28.316Z,518.00
2022-11-16T05:21:58.430Z,517.00
2022-11-16T05:22:28.540Z,516.00
2022-11-16T05:22:58.663Z,517.00
2022-11-16T05:23:28.651Z,518.00
2022-11-16T05:23:58.758Z,519.00
2022-11-16T05:24:28.752Z,520.00
2022-11-16T05:24:58.861Z,521.00
2022-11-16T05:25:33.843Z,516.00
2022-11-16T05:25:58.985Z,522.00
2022-11-16T05:26:29.095Z,532.00
2022-11-16T05:26:59.214Z,538.00
2022-11-16T05:27:29.322Z,536.00
2022-11-16T05:27:59.438Z,536.00
2022-11-16T05:28:29.551Z,535.00
2022-11-16T05:28:59.648Z,539.00
2022-11-16T05:29:29.722Z,546.00
2022-11-16T05:29:59.826Z,551.00
2022-11-16T05:30:29.890Z,546.00
2022-11-16T05:30:59.968Z,545.00
2022-11-16T05:31:30.040Z,544.00
2022-11-16T05:32:00.120Z,543.00
2022-11-16T05:32:30.198Z,545.00
2022-11-16T05:33:00.278Z,543.00
2022-11-16T05:33:30.355Z,545.00
2022-11-16T05:34:00.429Z,546.00
2022-11-16T05:34:30.500Z,545.00
2022-11-16T05:35:00.573Z,542.00
2022-11-16T05:35:30.646Z,542.00
2022-11-16T05:36:00.717Z,539.00
2022-11-16T05:36:30.792Z,537.00
2022-11-16T05:37:00.869Z,541.00
2022-11-16T05:37:30.943Z,546.00
2022-11-16T05:38:01.020Z,549.00
2022-11-16T05:38:31.376Z,550.00
2022-11-16T05:39:01.214Z,551.00
2022-11-16T05:39:31.169Z,553.00
2022-11-16T05:40:01.288Z,554.00
2022-11-16T05:40:31.397Z,553.00
2022-11-16T05:41:01.513Z,550.00
2022-11-16T05:41:31.617Z,551.00
2022-11-16T05:42:01.736Z,561.00
2022-11-16T05:42:31.848Z,565.00
2022-11-16T05:43:01.965Z,569.00
2022-11-16T05:43:31.950Z,570.00
2022-11-16T05:44:02.064Z,567.00
2022-11-16T05:44:32.182Z,568.00
2022-11-16T05:45:02.294Z,566.00
2022-11-16T05:45:32.433Z,565.00
2022-11-16T05:46:02.414Z,562.00
2022-11-16T05:46:32.520Z,573.00
2022-11-16T05:47:02.632Z,577.00
2022-11-16T05:47:32.746Z,575.00
2022-11-16T05:48:02.894Z,576.00
2022-11-16T05:48:33.362Z,574.00
2022-11-16T05:49:03.000Z,573.00
2022-11-16T05:49:33.106Z,574.00
2022-11-16T05:50:03.228Z,572.00
2022-11-16T05:50:34.718Z,572.00
2022-11-16T05:51:03.417Z,570.00
2022-11-16T05:51:33.517Z,570.00
2022-11-16T05:52:03.622Z,570.00
2022-11-16T05:52:33.736Z,567.00
2022-11-16T05:53:03.850Z,567.00
2022-11-16T05:53:33.960Z,565.00
2022-11-16T05:54:04.070Z,565.00
2022-11-16T05:54:34.188Z,562.00
2022-11-16T05:55:04.177Z,560.00
2022-11-16T05:55:34.288Z,559.00
2022-11-16T05:56:04.454Z,557.00
2022-11-16T05:56:34.576Z,558.00
2022-11-16T05:57:04.592Z,557.00
2022-11-16T05:57:34.703Z,556.00
2022-11-16T05:58:04.816Z,557.00
2022-11-16T05:58:35.322Z,556.00
2022-11-16T05:59:04.952Z,555.00
2022-11-16T05:59:35.068Z,556.00
2022-11-16T06:00:05.183Z,556.00
2022-11-16T06:00:35.321Z,556.00
2022-11-16T06:01:05.403Z,556.00
2022-11-16T06:01:35.514Z,555.00
2022-11-16T06:02:05.625Z,556.00
2022-11-16T06:02:35.834Z,555.00
2022-11-16T06:03:05.899Z,554.00
2022-11-16T06:03:35.926Z,552.00
2022-11-16T06:04:05.912Z,552.00
2022-11-16T06:04:36.054Z,551.00
2022-11-16T06:05:06.142Z,549.00
2022-11-16T06:05:40.298Z,549.00
2022-11-16T06:06:06.314Z,547.00
2022-11-16T06:06:36.424Z,543.00
2022-11-16T06:07:06.629Z,542.00
2022-11-16T06:07:36.823Z,540.00
2022-11-16T06:08:06.743Z,541.00
2022-11-16T06:08:37.051Z,538.00
2022-11-16T06:09:06.776Z,537.00
2022-11-16T06:09:36.788Z,536.00
2022-11-16T06:10:06.900Z,537.00
2022-11-16T06:10:36.891Z,537.00
2022-11-16T06:11:07.000Z,538.00
2022-11-16T06:11:37.115Z,536.00
2022-11-16T06:12:07.228Z,538.00
2022-11-16T06:12:37.336Z,539.00
2022-11-16T06:13:07.448Z,540.00
2022-11-16T06:13:37.567Z,539.00
2022-11-16T06:14:07.680Z,540.00
2022-11-16T06:14:37.789Z,540.00
2022-11-16T06:15:07.900Z,540.00
2022-11-16T06:15:38.013Z,543.00